Time;durP1;ratioP1;P1;durP2;ratioP2;P2;SDS_P1;SDS_P2;PMS_P1;PMS_P2;Temp;Humidity;BMP_temperature;BMP_pressure;BME280_temperature;BME280_humidity;BME280_pressure;Samples;Min_cycle;Max_cycle;Signal;HPM_P1;HPM_P2
2023/01/03 10:15:21;;;;;;;;;;;;;;;;;;;;;
2023/01/03 10:16:15;;;;;;;3.85;1.10;;;;;;;;;;529727;27;1201;-82
2023/01/03 10:36:37;;;;;;;4.97;1.20;;;;;;;;;;519657;28;1718;-79
2023/01/03 10:37:22;;;;;;;6.55;1.25;;;;;;;;;;523422;28;1071;-81
2023/01/03 10:37:45;;;;;;;7.10;1.15;;;;;;;;;;517901;28;1324;-79
2023/01/03 10:38:27;;;;;;;;;;;;;;;;;;;;;
2023/01/03 10:39:12;;;;;;;4.65;1.20;;;;;;;;;;518512;28;1231;-82
2023/01/03 10:40:05;;;;;;;6.68;1.10;;;;;;;;;;517419;28;1177;-81
2023/01/03 10:40:46;;;;;;;6.93;1.20;;;;;;;;;;521605;28;1193;-82
2023/01/03 10:41:21;;;;;;;4.75;1.30;;;;;;;;;;520611;28;1313;-81
2023/01/03 10:41:51;;;;;;;3.87;1.00;;;;;;;;;;519528;28;1268;-83
2023/01/03 10:42:15;;;;;;;3.83;1.13;;;;;;;;;;517299;28;1462;-82
2023/01/03 10:43:06;;;;;;;5.55;1.10;;;;;;;;;;514262;28;1370;-83
2023/01/03 10:44:57;;;;;;;5.47;1.20;;;;;;;;;;512585;28;1235;-82
2023/01/03 10:45:33;;;;;;;;;;;;;;;;;;;;;
2023/01/03 10:46:40;;;;;;;3.83;1.10;;;;;;;;;;510537;28;1287;-83
2023/01/03 10:47:42;;;;;;;3.70;1.00;;;;;;;;;;510718;28;1289;-83
2023/01/03 10:49:40;;;;;;;3.35;1.00;;;;;;;;;;514794;28;1366;-81
2023/01/03 10:50:23;;;;;;;4.10;0.90;;;;;;;;;;510805;28;1514;-82
2023/01/03 10:51:35;;;;;;;3.80;1.00;;;;;;;;;;514947;28;1540;-81
2023/01/03 10:53:15;;;;;;;4.35;1.00;;;;;;;;;;510126;28;1644;-79
2023/01/03 10:54:41;;;;;;;1.92;0.70;;;;;;;;;;515527;28;2005;-82
2023/01/03 10:55:16;;;;;;;3.10;0.90;;;;;;;;;;513099;28;1424;-80
2023/01/03 10:56:09;;;;;;;2.40;0.88;;;;;;;;;;513459;28;1408;-79
2023/01/03 10:56:39;;;;;;;2.58;0.98;;;;;;;;;;511676;28;1261;-80
2023/01/03 10:57:21;;;;;;;3.65;1.00;;;;;;;;;;514438;28;1428;-80
2023/01/03 10:58:39;;;;;;;2.88;0.90;;;;;;;;;;513811;28;1437;-82
2023/01/03 10:59:52;;;;;;;2.28;1.08;;;;;;;;;;514941;28;1076;-82
2023/01/03 11:00:42;;;;;;;2.38;0.85;;;;;;;;;;511889;28;1328;-80
2023/01/03 11:01:21;;;;;;;2.30;1.00;;;;;;;;;;507724;29;1181;-82
2023/01/03 11:02:17;;;;;;;3.55;0.90;;;;;;;;;;505938;29;1455;-82
2023/01/03 11:03:09;;;;;;;2.13;0.88;;;;;;;;;;511180;28;1133;-81
2023/01/03 11:03:25;;;;;;;3.00;0.80;;;;;;;;;;510437;28;1361;-79
2023/01/03 11:03:46;;;;;;;2.47;0.80;;;;;;;;;;509496;29;1927;-80
2023/01/03 11:04:34;;;;;;;2.50;0.90;;;;;;;;;;511183;28;1901;-78
2023/01/03 11:05:59;;;;;;;2.75;0.90;;;;;;;;;;508351;29;1591;-80
2023/01/03 11:06:55;;;;;;;3.10;0.80;;;;;;;;;;507721;28;1510;-78
2023/01/03 11:09:47;;;;;;;4.15;0.80;;;;;;;;;;506142;29;1677;-80
2023/01/03 11:10:41;;;;;;;;;;;;;;;;;;;;;
2023/01/03 11:11:32;;;;;;;1.65;0.80;;;;;;;;;;513187;28;1056;-81
2023/01/03 11:12:26;;;;;;;1.67;0.68;;;;;;;;;;510979;28;1224;-80
2023/01/03 11:13:14;;;;;;;2.30;0.73;;;;;;;;;;511162;28;1581;-80
2023/01/03 11:14:08;;;;;;;1.73;0.70;;;;;;;;;;504784;29;1960;-80
2023/01/03 11:14:57;;;;;;;3.40;1.00;;;;;;;;;;499232;29;1571;-80
2023/01/03 11:19:33;;;;;;;1.85;0.80;;;;;;;;;;511740;28;1008;-80
2023/01/03 11:20:29;;;;;;;;;;;;;;;;;;;;;
2023/01/03 11:21:22;;;;;;;3.22;1.00;;;;;;;;;;505390;29;1467;-80
2023/01/03 11:22:29;;;;;;;;;;;;;;;;;;;;;
2023/01/03 11:23:55;;;;;;;2.20;0.90;;;;;;;;;;508459;29;1410;-80
2023/01/03 11:24:42;;;;;;;1.90;0.98;;;;;;;;;;500590;29;1521;-80
2023/01/03 11:25:16;;;;;;;2.33;0.90;;;;;;;;;;500509;29;1142;-80
2023/01/03 11:26:15;;;;;;;2.63;0.90;;;;;;;;;;496941;29;1306;-81
2023/01/03 11:27:07;;;;;;;1.95;0.80;;;;;;;;;;500805;29;1429;-80
2023/01/03 11:27:45;;;;;;;2.40;0.80;;;;;;;;;;501224;29;1163;-80
2023/01/03 11:28:48;;;;;;;1.52;0.80;;;;;;;;;;506825;29;1449;-81
2023/01/03 11:30:16;;;;;;;2.55;0.70;;;;;;;;;;505447;29;1510;-81
2023/01/03 11:31:18;;;;;;;;;;;;;;;;;;;;;
2023/01/03 11:32:04;;;;;;;2.88;1.00;;;;;;;;;;504208;29;1510;-81
2023/01/03 11:33:15;;;;;;;2.15;0.90;;;;;;;;;;503158;29;1546;-81
2023/01/03 11:34:21;;;;;;;2.15;0.90;;;;;;;;;;497985;29;1964;-80
2023/01/03 11:35:16;;;;;;;1.58;0.70;;;;;;;;;;499979;29;1269;-81
2023/01/03 11:37:03;;;;;;;2.63;0.80;;;;;;;;;;501131;29;1286;-81
2023/01/03 11:38:09;;;;;;;2.05;0.80;;;;;;;;;;502411;29;1176;-80
2023/01/03 11:39:05;;;;;;;1.52;0.80;;;;;;;;;;504114;29;1228;-80
2023/01/03 11:39:56;;;;;;;2.67;0.90;;;;;;;;;;501299;29;1292;-80
2023/01/03 11:40:33;;;;;;;3.40;0.75;;;;;;;;;;502555;29;1186;-79
2023/01/03 11:41:45;;;;;;;3.25;0.80;;;;;;;;;;500705;29;1273;-80
2023/01/03 11:42:35;;;;;;;2.22;0.90;;;;;;;;;;501031;29;1365;-80
2023/01/03 11:43:28;;;;;;;3.28;0.90;;;;;;;;;;495749;29;1463;-80
2023/01/03 11:45:40;;;;;;;2.40;0.80;;;;;;;;;;498791;29;1547;-79
2023/01/03 11:46:35;;;;;;;2.35;0.88;;;;;;;;;;498419;29;1401;-80
2023/01/03 11:47:31;;;;;;;3.97;0.93;;;;;;;;;;500075;29;1810;-80
2023/01/03 11:49:37;;;;;;;1.80;0.90;;;;;;;;;;499438;29;1207;-80
2023/01/03 11:50:37;;;;;;;2.85;0.93;;;;;;;;;;499121;29;1448;-80
2023/01/03 11:51:26;;;;;;;2.63;0.80;;;;;;;;;;493985;29;1213;-80
2023/01/03 11:52:08;;;;;;;3.70;0.90;;;;;;;;;;500319;29;1280;-80
2023/01/03 11:52:57;;;;;;;5.18;0.90;;;;;;;;;;498673;29;1206;-80
2023/01/03 11:53:33;;;;;;;2.42;0.80;;;;;;;;;;500426;29;1414;-80
2023/01/03 12:04:03;;;;;;;2.33;0.70;;;;;;;;;;507359;29;998;-80
2023/01/03 12:11:54;;;;;;;2.83;0.90;;;;;;;;;;494255;29;1287;-79
2023/01/03 12:31:05;;;;;;;2.78;0.80;;;;;;;;;;645907;22;1317;-80
2023/01/03 12:32:23;;;;;;;;;;;;;;;;;;;;;
2023/01/03 12:33:35;;;;;;;1.77;0.70;;;;;;;;;;633975;23;1138;-79
2023/01/03 12:34:15;;;;;;;3.00;0.70;;;;;;;;;;630023;23;1513;-80
2023/01/03 12:35:07;;;;;;;;;;;;;;;;;;;;;
2023/01/03 12:36:06;;;;;;;2.33;0.80;;;;;;;;;;631626;23;1413;-79
2023/01/03 12:37:07;;;;;;;1.67;0.65;;;;;;;;;;622868;23;1206;-79
2023/01/03 12:38:32;;;;;;;1.70;0.70;;;;;;;;;;619314;23;1392;-80
2023/01/03 12:39:26;;;;;;;2.00;0.70;;;;;;;;;;612965;24;1365;-80
2023/01/03 12:40:26;;;;;;;1.63;0.70;;;;;;;;;;605515;24;1176;-79
2023/01/03 12:41:18;;;;;;;;;;;;;;;;;;;;;
2023/01/03 12:42:19;;;;;;;1.52;0.65;;;;;;;;;;636328;23;1274;-80
2023/01/03 12:43:17;;;;;;;;;;;;;;;;;;;;;
2023/01/03 12:44:35;;;;;;;1.77;0.70;;;;;;;;;;626302;23;1466;-79
2023/01/03 12:45:30;;;;;;;1.60;0.70;;;;;;;;;;619300;23;1467;-80
2023/01/03 12:46:08;;;;;;;1.88;0.70;;;;;;;;;;620047;23;1191;-80
2023/01/03 12:48:02;;;;;;;1.70;0.70;;;;;;;;;;620516;23;1360;-80
2023/01/03 12:49:08;;;;;;;1.70;0.60;;;;;;;;;;624233;23;1438;-80
2023/01/03 12:50:24;;;;;;;1.67;0.70;;;;;;;;;;617440;24;1049;-80
2023/01/03 12:51:15;;;;;;;2.20;0.75;;;;;;;;;;608462;24;1568;-79
2023/01/03 12:51:45;;;;;;;1.85;0.80;;;;;;;;;;608846;24;1472;-79
2023/01/03 12:52:21;;;;;;;1.77;0.70;;;;;;;;;;609005;24;1081;-80
2023/01/03 12:53:23;;;;;;;1.73;0.70;;;;;;;;;;608091;24;1250;-80
2023/01/03 12:54:19;;;;;;;2.75;0.80;;;;;;;;;;602539;24;1448;-80
2023/01/03 12:55:11;;;;;;;1.60;0.60;;;;;;;;;;605408;24;1216;-80
2023/01/03 12:57:19;;;;;;;1.85;0.70;;;;;;;;;;608819;24;1937;-81
2023/01/03 12:58:28;;;;;;;2.20;0.65;;;;;;;;;;608440;24;1526;-80
2023/01/03 13:00:31;;;;;;;1.90;0.70;;;;;;;;;;606163;24;1358;-80
2023/01/03 13:01:14;;;;;;;1.42;0.65;;;;;;;;;;608776;24;1302;-80
2023/01/03 13:01:52;;;;;;;2.60;0.70;;;;;;;;;;608435;24;1459;-80
2023/01/03 13:02:57;;;;;;;2.75;0.63;;;;;;;;;;608553;24;1237;-80
2023/01/03 13:03:57;;;;;;;1.33;0.70;;;;;;;;;;611121;24;1414;-80
2023/01/03 13:05:22;;;;;;;1.98;0.70;;;;;;;;;;603087;24;1118;-80
2023/01/03 13:06:09;;;;;;;1.75;0.50;;;;;;;;;;594713;24;1271;-80
2023/01/03 13:06:38;;;;;;;1.58;0.60;;;;;;;;;;594306;24;1120;-80
2023/01/03 13:07:42;;;;;;;3.00;0.63;;;;;;;;;;594514;24;1497;-80
2023/01/03 13:08:19;;;;;;;1.95;0.70;;;;;;;;;;594192;24;1533;-80
2023/01/03 13:09:03;;;;;;;1.92;0.68;;;;;;;;;;596310;24;1289;-80
2023/01/03 13:09:45;;;;;;;1.63;0.60;;;;;;;;;;597066;24;1253;-80
2023/01/03 13:12:01;;;;;;;1.80;0.80;;;;;;;;;;596857;24;960;-80
2023/01/03 13:12:41;;;;;;;1.88;0.50;;;;;;;;;;597306;24;1337;-81
2023/01/03 13:13:25;;;;;;;2.42;0.70;;;;;;;;;;595186;24;1946;-80
2023/01/03 13:14:05;;;;;;;2.53;0.70;;;;;;;;;;594310;24;1231;-81
2023/01/03 13:14:36;;;;;;;2.45;0.70;;;;;;;;;;594660;24;1214;-80
2023/01/03 13:15:31;;;;;;;2.17;0.80;;;;;;;;;;596001;24;1411;-81
2023/01/03 13:16:57;;;;;;;1.80;0.73;;;;;;;;;;596504;24;1414;-80
2023/01/03 13:17:44;;;;;;;1.80;0.60;;;;;;;;;;592068;25;1236;-81
2023/01/03 14:36:58;;;;;;;3.15;0.94;;;;;;;;;;2655372;27;20863;-85
2023/01/03 14:37:23;;;;;;;2.95;1.00;;;;;;;;;;529272;27;1148;-81
2023/01/03 14:37:45;;;;;;;2.83;0.90;;;;;;;;;;527235;28;1432;-82
2023/01/03 14:38:04;;;;;;;2.05;0.90;;;;;;;;;;524718;28;1255;-82
2023/01/03 14:38:25;;;;;;;2.45;0.85;;;;;;;;;;523508;28;1229;-80
2023/01/03 14:38:49;;;;;;;2.67;0.80;;;;;;;;;;521111;28;1239;-81
2023/01/03 14:39:31;;;;;;;2.85;0.80;;;;;;;;;;520454;28;1357;-81
2023/01/03 14:39:55;;;;;;;1.40;0.75;;;;;;;;;;522425;28;1209;-82
2023/01/03 15:08:49;;;;;;;4.73;0.60;;;;;;;;;;1061251;27;20779;-79
2023/01/03 15:09:44;;;;;;;2.60;0.60;;;;;;;;;;516840;28;1357;-77
2023/01/03 15:11:09;;;;;;;5.80;0.80;;;;;;;;;;513989;28;1277;-79
2023/01/03 15:12:03;;;;;;;1.58;0.70;;;;;;;;;;515304;28;1529;-77
2023/01/03 15:12:48;;;;;;;3.47;0.70;;;;;;;;;;526376;28;1468;-78
2023/01/03 15:13:32;;;;;;;2.55;0.60;;;;;;;;;;524641;28;1265;-78
2023/01/03 15:13:55;;;;;;;2.15;0.60;;;;;;;;;;520019;28;1352;-78
2023/01/03 15:14:13;;;;;;;3.40;0.60;;;;;;;;;;520676;28;1511;-81
2023/01/03 15:14:49;;;;;;;2.20;0.65;;;;;;;;;;523277;28;1430;-81
2023/01/03 15:15:26;;;;;;;;;;;;;;;;;;;;;
